Time;durP1;ratioP1;P1;durP2;ratioP2;P2;SDS_P1;SDS_P2;PMS_P1;PMS_P2;Temp;Humidity;BMP_temperature;BMP_pressure;BME280_temperature;BME280_humidity;BME280_pressure;Samples;Min_cycle;Max_cycle;Signal;HPM_P1;HPM_P2
2021/07/04 00:02:15;;;;;;;6.40;4.15;;;;;;;;;;4940359;28;20026;-84
2021/07/04 00:05:01;;;;;;;7.93;4.03;;;;;;;;;;4942573;28;20027;-84
2021/07/04 00:07:46;;;;;;;6.88;4.35;;;;;;;;;;4933802;28;20019;-84
2021/07/04 00:10:39;;;;;;;5.72;4.15;;;;;;;;;;4943256;28;20131;-83
2021/07/04 00:13:24;;;;;;;6.50;4.90;;;;;;;;;;4939077;28;20083;-84
2021/07/04 00:16:10;;;;;;;8.13;4.80;;;;;;;;;;4946264;28;20050;-84
2021/07/04 00:18:55;;;;;;;8.30;5.03;;;;;;;;;;4938154;29;20386;-84
2021/07/04 00:21:40;;;;;;;9.57;4.95;;;;;;;;;;4935049;28;20038;-84
2021/07/04 00:24:25;;;;;;;6.53;4.65;;;;;;;;;;4945334;28;20027;-84
2021/07/04 00:27:11;;;;;;;8.43;4.65;;;;;;;;;;4942050;28;20034;-83
2021/07/04 00:29:56;;;;;;;6.45;4.32;;;;;;;;;;4943764;28;20030;-84
2021/07/04 00:32:42;;;;;;;7.53;4.50;;;;;;;;;;4942887;28;20478;-84
2021/07/04 00:35:27;;;;;;;6.13;4.60;;;;;;;;;;4937281;28;20036;-85
2021/07/04 00:38:12;;;;;;;6.25;4.60;;;;;;;;;;4942617;28;20565;-83
2021/07/04 00:40:58;;;;;;;6.72;4.30;;;;;;;;;;4944545;28;20039;-82
2021/07/04 00:43:43;;;;;;;6.35;4.60;;;;;;;;;;4944558;28;20838;-82
2021/07/04 00:46:31;;;;;;;6.35;4.93;;;;;;;;;;4922990;28;20081;-83
2021/07/04 00:49:16;;;;;;;9.95;5.10;;;;;;;;;;4943677;28;20030;-82
2021/07/04 00:52:01;;;;;;;6.13;4.70;;;;;;;;;;4943598;28;20271;-83
2021/07/04 00:54:47;;;;;;;7.80;5.13;;;;;;;;;;4940719;28;20394;-83
2021/07/04 00:57:32;;;;;;;7.53;4.28;;;;;;;;;;4942206;28;20031;-83
2021/07/04 01:00:23;;;;;;;6.88;4.75;;;;;;;;;;4935059;28;20046;-83
2021/07/04 01:03:08;;;;;;;5.25;4.32;;;;;;;;;;4941585;28;20019;-84
2021/07/04 01:05:54;;;;;;;9.13;4.80;;;;;;;;;;4934575;28;20035;-84
2021/07/04 01:08:39;;;;;;;7.20;4.72;;;;;;;;;;4939277;28;20027;-83
2021/07/04 01:11:24;;;;;;;6.95;4.63;;;;;;;;;;4939751;28;20082;-82
2021/07/04 01:14:10;;;;;;;6.63;4.40;;;;;;;;;;4939611;28;20606;-82
2021/07/04 01:16:55;;;;;;;6.25;4.63;;;;;;;;;;4934784;28;20045;-81
2021/07/04 01:19:41;;;;;;;7.35;5.13;;;;;;;;;;4943645;28;20023;-81
2021/07/04 01:22:27;;;;;;;6.47;5.15;;;;;;;;;;4939142;28;20060;-82
2021/07/04 01:25:14;;;;;;;7.20;4.88;;;;;;;;;;4937979;28;20490;-81
2021/07/04 01:28:00;;;;;;;6.22;5.03;;;;;;;;;;4934230;28;20031;-82
2021/07/04 01:30:48;;;;;;;6.40;4.43;;;;;;;;;;4937380;28;20095;-82
2021/07/04 01:33:34;;;;;;;7.05;5.60;;;;;;;;;;4943103;28;20018;-82
2021/07/04 01:36:19;;;;;;;9.07;5.05;;;;;;;;;;4926387;28;20433;-83
2021/07/04 01:39:05;;;;;;;10.52;5.20;;;;;;;;;;4943504;28;20106;-82
2021/07/04 01:41:50;;;;;;;11.43;5.15;;;;;;;;;;4924263;28;20386;-82
2021/07/04 01:44:35;;;;;;;9.43;5.30;;;;;;;;;;4942728;28;20081;-82
2021/07/04 01:47:20;;;;;;;8.23;5.20;;;;;;;;;;4939950;28;20031;-82
2021/07/04 01:50:07;;;;;;;5.65;4.82;;;;;;;;;;4943637;28;20042;-82
2021/07/04 01:52:52;;;;;;;6.70;5.22;;;;;;;;;;4935667;28;20024;-83
2021/07/04 01:55:37;;;;;;;7.90;5.22;;;;;;;;;;4938295;28;20019;-84
2021/07/04 01:58:22;;;;;;;8.10;4.65;;;;;;;;;;4940821;28;20118;-83
2021/07/04 02:01:08;;;;;;;10.35;5.55;;;;;;;;;;4939912;28;20467;-84
2021/07/04 02:03:53;;;;;;;9.10;5.07;;;;;;;;;;4932202;28;20027;-83
2021/07/04 02:06:38;;;;;;;7.40;5.43;;;;;;;;;;4932250;29;20185;-83
2021/07/04 02:09:24;;;;;;;9.00;5.13;;;;;;;;;;4932335;28;20114;-84
2021/07/04 02:12:09;;;;;;;10.38;5.35;;;;;;;;;;4938659;29;20086;-83
2021/07/04 02:14:54;;;;;;;8.57;5.55;;;;;;;;;;4932289;29;20069;-82
2021/07/04 02:17:39;;;;;;;6.90;4.72;;;;;;;;;;4933184;29;20114;-82
2021/07/04 02:20:33;;;;;;;8.65;5.65;;;;;;;;;;4926042;29;20102;-82
2021/07/04 02:23:23;;;;;;;6.88;5.40;;;;;;;;;;4918858;29;20031;-82
2021/07/04 02:26:08;;;;;;;9.40;5.38;;;;;;;;;;4930009;29;20020;-83
2021/07/04 02:28:53;;;;;;;7.25;4.95;;;;;;;;;;4919833;29;20043;-84
2021/07/04 02:31:38;;;;;;;8.55;5.68;;;;;;;;;;4923572;29;20027;-83
2021/07/04 02:34:26;;;;;;;8.60;5.07;;;;;;;;;;4934308;29;20305;-82
2021/07/04 02:37:11;;;;;;;6.88;5.13;;;;;;;;;;4932522;29;20106;-82
2021/07/04 02:39:56;;;;;;;7.20;4.93;;;;;;;;;;4923584;29;20091;-82
2021/07/04 02:42:42;;;;;;;7.63;5.35;;;;;;;;;;4933304;29;20050;-82
2021/07/04 02:45:27;;;;;;;8.68;5.50;;;;;;;;;;4933315;29;20444;-82
2021/07/04 02:48:13;;;;;;;6.43;5.07;;;;;;;;;;4932507;29;20026;-82
2021/07/04 02:50:58;;;;;;;8.95;5.63;;;;;;;;;;4927235;29;20023;-83
2021/07/04 02:53:44;;;;;;;10.35;5.70;;;;;;;;;;4930689;29;20030;-84
2021/07/04 02:56:29;;;;;;;7.80;5.47;;;;;;;;;;4914835;29;20032;-83
2021/07/04 02:59:14;;;;;;;8.48;5.25;;;;;;;;;;4928339;29;20031;-82
2021/07/04 03:01:59;;;;;;;10.07;5.03;;;;;;;;;;4930679;29;20030;-83
2021/07/04 03:04:44;;;;;;;10.30;5.30;;;;;;;;;;4931366;29;20028;-83
2021/07/04 03:07:30;;;;;;;6.65;5.47;;;;;;;;;;4927517;29;20343;-83
2021/07/04 03:10:16;;;;;;;8.55;5.43;;;;;;;;;;4921433;29;20028;-83
2021/07/04 03:13:02;;;;;;;8.07;5.90;;;;;;;;;;4929887;29;20117;-82
2021/07/04 03:15:47;;;;;;;7.43;5.70;;;;;;;;;;4927150;29;20055;-83
2021/07/04 03:18:32;;;;;;;7.38;4.80;;;;;;;;;;4930642;29;20023;-82
2021/07/04 03:21:18;;;;;;;8.07;5.05;;;;;;;;;;4919006;29;20040;-82
2021/07/04 03:24:03;;;;;;;8.55;5.10;;;;;;;;;;4930337;29;20042;-82
2021/07/04 03:26:49;;;;;;;8.35;5.38;;;;;;;;;;4921363;29;20273;-82
2021/07/04 03:29:34;;;;;;;7.75;5.43;;;;;;;;;;4931066;29;20478;-82
2021/07/04 03:32:20;;;;;;;7.78;5.68;;;;;;;;;;4925231;29;20118;-83
2021/07/04 03:35:06;;;;;;;8.45;5.43;;;;;;;;;;4929401;29;20035;-82
2021/07/04 03:37:52;;;;;;;8.52;5.38;;;;;;;;;;4928763;29;20134;-84
2021/07/04 03:40:38;;;;;;;5.88;4.78;;;;;;;;;;4938461;29;20055;-83
2021/07/04 03:43:23;;;;;;;7.25;5.40;;;;;;;;;;4929416;29;20395;-84
2021/07/04 03:46:08;;;;;;;6.95;5.40;;;;;;;;;;4928174;29;20043;-83
2021/07/04 03:48:54;;;;;;;7.57;5.25;;;;;;;;;;4937698;29;20042;-82
2021/07/04 03:51:39;;;;;;;9.25;5.55;;;;;;;;;;4929176;29;20390;-84
2021/07/04 03:54:24;;;;;;;8.13;5.22;;;;;;;;;;4931716;29;20483;-82
2021/07/04 03:57:22;;;;;;;8.20;5.45;;;;;;;;;;4930548;29;20031;-83
2021/07/04 04:00:07;;;;;;;8.05;4.70;;;;;;;;;;4922561;29;20064;-83
2021/07/04 04:02:53;;;;;;;6.55;4.75;;;;;;;;;;4920891;29;20024;-83
2021/07/04 04:05:38;;;;;;;6.72;5.00;;;;;;;;;;4930703;29;20020;-83
2021/07/04 04:08:23;;;;;;;7.85;5.68;;;;;;;;;;4908967;29;20091;-82
2021/07/04 04:11:09;;;;;;;6.78;5.25;;;;;;;;;;4929190;29;20059;-82
2021/07/04 04:13:55;;;;;;;9.10;5.82;;;;;;;;;;4920936;29;20028;-82
2021/07/04 04:16:40;;;;;;;8.00;5.10;;;;;;;;;;4934060;29;20110;-81
2021/07/04 04:19:25;;;;;;;7.60;5.32;;;;;;;;;;4929388;29;20071;-82
2021/07/04 04:22:10;;;;;;;6.63;4.97;;;;;;;;;;4929137;29;20087;-82
2021/07/04 04:24:56;;;;;;;8.45;6.30;;;;;;;;;;4931133;29;20055;-82
2021/07/04 04:27:41;;;;;;;12.05;6.18;;;;;;;;;;4930158;29;20037;-82
2021/07/04 04:30:26;;;;;;;10.60;5.70;;;;;;;;;;4930899;28;20019;-81
2021/07/04 04:33:12;;;;;;;7.82;5.25;;;;;;;;;;4933492;29;20038;-82
2021/07/04 04:35:57;;;;;;;7.97;5.32;;;;;;;;;;4933933;29;20122;-83
2021/07/04 04:38:42;;;;;;;8.63;5.63;;;;;;;;;;4930365;29;20031;-83
2021/07/04 04:41:27;;;;;;;10.30;5.72;;;;;;;;;;4946190;29;20118;-83
2021/07/04 04:44:13;;;;;;;7.30;5.68;;;;;;;;;;4935304;29;20474;-84
2021/07/04 04:46:58;;;;;;;9.75;5.00;;;;;;;;;;4933409;29;20046;-83
2021/07/04 04:49:43;;;;;;;6.72;4.47;;;;;;;;;;4931770;29;20027;-83
2021/07/04 04:52:28;;;;;;;9.13;5.20;;;;;;;;;;4920592;29;20698;-82
2021/07/04 04:55:14;;;;;;;6.82;5.30;;;;;;;;;;4927237;29;20019;-82
2021/07/04 04:57:59;;;;;;;6.55;5.28;;;;;;;;;;4938522;29;20404;-82
2021/07/04 05:00:44;;;;;;;7.72;5.28;;;;;;;;;;4936805;29;20840;-83
2021/07/04 05:03:29;;;;;;;9.90;5.30;;;;;;;;;;4938958;29;20047;-86
2021/07/04 05:06:15;;;;;;;11.13;5.97;;;;;;;;;;4922877;29;20028;-85
2021/07/04 05:09:00;;;;;;;8.93;6.05;;;;;;;;;;4929394;29;20517;-84
2021/07/04 05:11:46;;;;;;;7.35;5.50;;;;;;;;;;4937422;29;20024;-85
2021/07/04 05:14:31;;;;;;;8.20;5.03;;;;;;;;;;4931709;29;20051;-84
2021/07/04 05:17:17;;;;;;;8.90;5.78;;;;;;;;;;4932064;29;20036;-84
2021/07/04 05:20:03;;;;;;;6.82;5.22;;;;;;;;;;4917021;29;20031;-84
2021/07/04 05:22:49;;;;;;;7.63;5.07;;;;;;;;;;4932885;29;20022;-85
2021/07/04 05:25:34;;;;;;;9.77;5.53;;;;;;;;;;4931873;29;20038;-82
2021/07/04 05:28:19;;;;;;;7.15;5.13;;;;;;;;;;4933398;29;20032;-85
2021/07/04 05:31:04;;;;;;;6.95;5.07;;;;;;;;;;4917031;29;20023;-84
2021/07/04 05:33:50;;;;;;;8.80;5.07;;;;;;;;;;4943409;29;20015;-84
2021/07/04 05:36:35;;;;;;;7.93;5.22;;;;;;;;;;4928880;29;20474;-84
2021/07/04 05:39:20;;;;;;;7.38;5.70;;;;;;;;;;4930266;29;20059;-84
2021/07/04 05:42:06;;;;;;;8.85;5.43;;;;;;;;;;4927613;29;20024;-84
2021/07/04 05:44:51;;;;;;;6.95;5.28;;;;;;;;;;4944618;29;20054;-84
2021/07/04 05:47:37;;;;;;;7.13;5.32;;;;;;;;;;4932131;29;20028;-84
2021/07/04 05:50:22;;;;;;;8.13;5.20;;;;;;;;;;4932411;29;20129;-84
2021/07/04 05:53:07;;;;;;;8.02;5.03;;;;;;;;;;4927810;29;20071;-85
2021/07/04 05:55:53;;;;;;;6.75;5.00;;;;;;;;;;4933302;29;20397;-85
2021/07/04 05:58:38;;;;;;;9.57;5.57;;;;;;;;;;4935259;29;20397;-84
2021/07/04 06:01:23;;;;;;;7.47;4.55;;;;;;;;;;4932099;29;20505;-85
2021/07/04 06:04:08;;;;;;;9.93;5.07;;;;;;;;;;4929491;29;20027;-85
2021/07/04 06:06:56;;;;;;;7.65;5.13;;;;;;;;;;4928939;29;20047;-85
2021/07/04 06:09:44;;;;;;;7.60;5.32;;;;;;;;;;4934086;29;20032;-83
2021/07/04 06:12:29;;;;;;;7.40;5.28;;;;;;;;;;4930031;29;20079;-84
2021/07/04 06:15:15;;;;;;;6.80;4.47;;;;;;;;;;4910155;29;20047;-84
2021/07/04 06:18:00;;;;;;;6.60;5.10;;;;;;;;;;4928887;29;20028;-84
2021/07/04 06:20:45;;;;;;;6.40;4.65;;;;;;;;;;4935971;29;20050;-84
2021/07/04 06:23:30;;;;;;;6.35;4.72;;;;;;;;;;4914086;29;20367;-83
2021/07/04 06:26:16;;;;;;;6.55;5.10;;;;;;;;;;4940109;29;20034;-84
2021/07/04 06:29:01;;;;;;;5.60;4.25;;;;;;;;;;4932255;29;20031;-84
2021/07/04 06:31:46;;;;;;;6.22;4.53;;;;;;;;;;4931118;29;20120;-83
2021/07/04 06:34:31;;;;;;;8.43;5.00;;;;;;;;;;4933282;29;20086;-84
2021/07/04 06:37:17;;;;;;;5.70;4.78;;;;;;;;;;4936572;29;20386;-84
2021/07/04 06:40:03;;;;;;;6.25;4.40;;;;;;;;;;4930220;29;20024;-84
2021/07/04 06:42:48;;;;;;;5.60;4.45;;;;;;;;;;4933160;29;20110;-83
2021/07/04 06:45:33;;;;;;;7.93;4.55;;;;;;;;;;4930547;29;20027;-83
2021/07/04 06:48:18;;;;;;;5.93;4.85;;;;;;;;;;4926940;29;20530;-84
2021/07/04 06:51:05;;;;;;;6.82;4.35;;;;;;;;;;4930093;29;20028;-84
2021/07/04 06:53:50;;;;;;;6.95;4.53;;;;;;;;;;4934126;29;20110;-84
2021/07/04 06:56:35;;;;;;;7.28;5.18;;;;;;;;;;4931384;29;20109;-86
2021/07/04 06:59:20;;;;;;;6.25;4.50;;;;;;;;;;4930582;29;20461;-85
2021/07/04 07:02:05;;;;;;;5.82;4.25;;;;;;;;;;4933082;29;20126;-84
2021/07/04 07:04:51;;;;;;;6.43;5.20;;;;;;;;;;4930868;29;20059;-84
2021/07/04 07:07:37;;;;;;;6.93;4.78;;;;;;;;;;4929820;29;20059;-84
2021/07/04 07:10:22;;;;;;;6.53;4.82;;;;;;;;;;4929385;29;20027;-84
2021/07/04 07:13:07;;;;;;;7.05;4.25;;;;;;;;;;4943249;29;20367;-88
2021/07/04 07:15:53;;;;;;;6.78;4.53;;;;;;;;;;4929656;29;20048;-84
2021/07/04 07:18:38;;;;;;;6.88;4.90;;;;;;;;;;4933593;29;20042;-81
2021/07/04 07:21:24;;;;;;;6.85;4.53;;;;;;;;;;4930174;29;20061;-82
2021/07/04 07:24:10;;;;;;;6.75;4.43;;;;;;;;;;4932949;29;20059;-82
2021/07/04 07:26:55;;;;;;;7.22;4.80;;;;;;;;;;4934234;29;20478;-82
2021/07/04 07:29:40;;;;;;;7.53;5.30;;;;;;;;;;4923485;29;20179;-82
2021/07/04 07:32:27;;;;;;;7.10;4.28;;;;;;;;;;4935113;29;20030;-81
2021/07/04 07:35:13;;;;;;;7.80;4.95;;;;;;;;;;4930781;29;20035;-82
2021/07/04 07:38:03;;;;;;;6.82;4.97;;;;;;;;;;4915538;29;20091;-80
2021/07/04 07:40:48;;;;;;;5.18;4.53;;;;;;;;;;4928723;29;20423;-82
2021/07/04 07:43:33;;;;;;;7.78;4.50;;;;;;;;;;4916271;29;20031;-87
2021/07/04 07:46:19;;;;;;;5.60;4.22;;;;;;;;;;4913888;29;20035;-85
2021/07/04 07:49:04;;;;;;;5.60;4.25;;;;;;;;;;4918478;29;20040;-85
2021/07/04 07:51:50;;;;;;;6.43;4.57;;;;;;;;;;4938698;28;20513;-83
2021/07/04 07:54:35;;;;;;;4.72;4.00;;;;;;;;;;4929068;29;20059;-83
2021/07/04 07:57:21;;;;;;;8.68;5.53;;;;;;;;;;4930711;29;20027;-84
2021/07/04 08:00:07;;;;;;;7.40;5.03;;;;;;;;;;4930641;29;20427;-89
2021/07/04 08:02:52;;;;;;;9.65;5.13;;;;;;;;;;4929064;29;20177;-85
2021/07/04 08:05:37;;;;;;;7.05;4.63;;;;;;;;;;4937175;29;20020;-86
2021/07/04 08:08:24;;;;;;;7.30;5.03;;;;;;;;;;4930914;29;20057;-86
2021/07/04 08:11:09;;;;;;;12.68;4.90;;;;;;;;;;4926496;29;20033;-85
2021/07/04 08:13:55;;;;;;;6.35;4.70;;;;;;;;;;4931977;29;20012;-83
2021/07/04 08:16:40;;;;;;;6.38;4.30;;;;;;;;;;4937837;28;20557;-82
2021/07/04 08:19:25;;;;;;;7.95;4.90;;;;;;;;;;4943965;28;20151;-85
2021/07/04 08:22:10;;;;;;;5.93;4.63;;;;;;;;;;4936306;28;20381;-87
2021/07/04 08:24:55;;;;;;;13.82;10.60;;;;;;;;;;4939977;28;20789;-88
2021/07/04 08:27:41;;;;;;;14.77;13.18;;;;;;;;;;4941626;28;20035;-82
2021/07/04 08:30:26;;;;;;;9.50;6.38;;;;;;;;;;4941395;28;20062;-86
2021/07/04 08:33:12;;;;;;;9.05;5.35;;;;;;;;;;4943407;28;20050;-85
2021/07/04 08:35:57;;;;;;;6.20;4.13;;;;;;;;;;4929543;28;20045;-85
2021/07/04 08:38:42;;;;;;;6.88;4.55;;;;;;;;;;4935076;29;20099;-82
2021/07/04 08:41:28;;;;;;;9.02;4.95;;;;;;;;;;4942208;28;20493;-81
2021/07/04 08:44:14;;;;;;;9.65;5.68;;;;;;;;;;4919952;29;20039;-81
2021/07/04 08:46:59;;;;;;;6.97;4.57;;;;;;;;;;4934854;29;20106;-83
2021/07/04 08:49:45;;;;;;;5.40;4.55;;;;;;;;;;4917300;28;20089;-81
2021/07/04 08:52:31;;;;;;;12.35;9.32;;;;;;;;;;4934833;28;20026;-83
2021/07/04 08:55:17;;;;;;;19.02;15.90;;;;;;;;;;4938660;28;20498;-83
2021/07/04 08:58:03;;;;;;;7.72;5.70;;;;;;;;;;4942811;28;20026;-82
2021/07/04 09:01:06;;;;;;;19.60;7.78;;;;;;;;;;4935199;28;20062;-83
2021/07/04 09:03:53;;;;;;;6.93;4.65;;;;;;;;;;4931288;28;20078;-84
2021/07/04 09:06:40;;;;;;;6.90;5.05;;;;;;;;;;4929081;28;20034;-80
2021/07/04 09:09:26;;;;;;;10.40;5.45;;;;;;;;;;4930778;28;20512;-82
2021/07/04 09:12:11;;;;;;;5.80;4.30;;;;;;;;;;4932700;28;20505;-81
2021/07/04 09:14:58;;;;;;;6.95;4.53;;;;;;;;;;4929324;28;20078;-83
2021/07/04 09:17:45;;;;;;;8.23;4.32;;;;;;;;;;4932574;28;20035;-83
2021/07/04 09:20:30;;;;;;;8.52;5.32;;;;;;;;;;4918215;28;20516;-84
2021/07/04 09:23:30;;;;;;;14.40;11.43;;;;;;;;;;4937868;29;20385;-83
2021/07/04 09:26:34;;;;;;;5.90;3.83;;;;;;;;;;4929888;28;20037;-85
2021/07/04 09:29:38;;;;;;;9.88;3.95;;;;;;;;;;4937263;28;20050;-83
2021/07/04 09:32:25;;;;;;;8.02;5.68;;;;;;;;;;4935991;28;20031;-85
2021/07/04 09:35:16;;;;;;;6.93;4.55;;;;;;;;;;4942883;28;20031;-85
2021/07/04 09:38:11;;;;;;;6.25;3.47;;;;;;;;;;4935561;28;20031;-85
2021/07/04 09:40:57;;;;;;;6.70;4.30;;;;;;;;;;4943098;28;20038;-83
2021/07/04 09:43:42;;;;;;;5.85;4.30;;;;;;;;;;4938529;29;20038;-84
2021/07/04 09:46:28;;;;;;;17.80;4.72;;;;;;;;;;4932293;28;20027;-83
2021/07/04 09:49:21;;;;;;;6.45;4.20;;;;;;;;;;4937385;29;20130;-84
2021/07/04 09:52:13;;;;;;;13.05;8.30;;;;;;;;;;4940144;28;20050;-87
2021/07/04 09:55:00;;;;;;;16.63;14.30;;;;;;;;;;4944337;28;20019;-85
2021/07/04 09:57:57;;;;;;;9.30;6.10;;;;;;;;;;4936845;28;20355;-86
2021/07/04 10:00:43;;;;;;;5.90;3.92;;;;;;;;;;4926249;28;20351;-85
2021/07/04 10:03:28;;;;;;;6.45;4.30;;;;;;;;;;4945376;28;20085;-87
2021/07/04 10:06:14;;;;;;;5.13;3.97;;;;;;;;;;4938735;28;20136;-85
2021/07/04 10:08:59;;;;;;;5.50;3.80;;;;;;;;;;4936555;28;20027;-84
2021/07/04 10:11:45;;;;;;;7.32;4.20;;;;;;;;;;4946723;28;20023;-86
2021/07/04 10:14:30;;;;;;;6.05;3.65;;;;;;;;;;4940755;28;20522;-85
2021/07/04 10:17:15;;;;;;;7.72;3.70;;;;;;;;;;4932771;28;20039;-85
2021/07/04 10:20:01;;;;;;;5.82;4.43;;;;;;;;;;4933404;28;20105;-83
2021/07/04 10:22:46;;;;;;;6.93;4.05;;;;;;;;;;4940712;28;20494;-84
2021/07/04 10:25:32;;;;;;;4.93;3.45;;;;;;;;;;4937452;29;20085;-86
2021/07/04 10:28:19;;;;;;;4.53;3.47;;;;;;;;;;4920913;28;20035;-85
2021/07/04 10:31:08;;;;;;;11.27;4.20;;;;;;;;;;4942122;29;20542;-83
2021/07/04 10:34:14;;;;;;;5.18;3.90;;;;;;;;;;4939266;28;20117;-85
2021/07/04 10:37:04;;;;;;;4.85;3.88;;;;;;;;;;4936074;28;20694;-85
2021/07/04 10:40:08;;;;;;;5.47;4.22;;;;;;;;;;4942156;28;20061;-86
2021/07/04 10:43:15;;;;;;;10.18;8.25;;;;;;;;;;4937269;29;20043;-84
2021/07/04 10:46:02;;;;;;;6.88;5.65;;;;;;;;;;4954176;28;20031;-91
2021/07/04 10:48:57;;;;;;;7.00;4.75;;;;;;;;;;4934995;28;20031;-87
2021/07/04 10:51:54;;;;;;;4.55;3.80;;;;;;;;;;4936003;28;20059;-84
2021/07/04 10:54:46;;;;;;;16.02;5.60;;;;;;;;;;4936121;29;20038;-89
2021/07/04 10:57:32;;;;;;;6.85;4.68;;;;;;;;;;4941646;28;20108;-89
2021/07/04 11:00:21;;;;;;;25.65;8.15;;;;;;;;;;4938018;28;20590;-86
2021/07/04 11:03:09;;;;;;;37.65;10.73;;;;;;;;;;4923396;28;20069;-84
2021/07/04 11:05:55;;;;;;;9.98;5.28;;;;;;;;;;4935794;28;20034;-83
2021/07/04 11:08:51;;;;;;;6.00;4.15;;;;;;;;;;4932178;28;20031;-83
2021/07/04 11:11:36;;;;;;;12.50;5.88;;;;;;;;;;4935134;28;20413;-83
2021/07/04 11:14:22;;;;;;;12.68;5.43;;;;;;;;;;4933545;28;20035;-83
2021/07/04 11:17:07;;;;;;;17.83;6.97;;;;;;;;;;4936510;28;20042;-83
2021/07/04 11:20:08;;;;;;;7.00;4.28;;;;;;;;;;4942409;28;20058;-84
2021/07/04 11:23:04;;;;;;;14.73;8.30;;;;;;;;;;4950897;28;20027;-83
2021/07/04 11:25:55;;;;;;;15.57;6.95;;;;;;;;;;4932414;28;20027;-83
2021/07/04 11:28:42;;;;;;;11.82;6.03;;;;;;;;;;4939949;28;20058;-83
2021/07/04 11:31:28;;;;;;;13.75;5.75;;;;;;;;;;4939330;29;20399;-83
2021/07/04 11:34:13;;;;;;;11.57;5.68;;;;;;;;;;4936579;28;20023;-83
2021/07/04 11:36:59;;;;;;;13.55;6.20;;;;;;;;;;4939258;28;20015;-84
2021/07/04 11:40:02;;;;;;;9.55;5.32;;;;;;;;;;4924712;28;20023;-83
2021/07/04 11:42:47;;;;;;;6.97;5.20;;;;;;;;;;4941983;28;20034;-82
2021/07/04 11:45:33;;;;;;;8.18;5.05;;;;;;;;;;4941473;28;20027;-82
2021/07/04 11:48:19;;;;;;;12.05;7.45;;;;;;;;;;4941002;28;20035;-83
2021/07/04 11:51:06;;;;;;;8.18;5.05;;;;;;;;;;4935676;28;20429;-83
2021/07/04 11:53:52;;;;;;;7.85;4.40;;;;;;;;;;4944554;28;20027;-83
2021/07/04 11:56:38;;;;;;;6.60;4.60;;;;;;;;;;4942668;28;20039;-83
2021/07/04 11:59:25;;;;;;;7.38;4.40;;;;;;;;;;4938121;29;20034;-83
2021/07/04 12:02:10;;;;;;;5.53;4.10;;;;;;;;;;4943416;28;20598;-83
2021/07/04 12:04:55;;;;;;;4.97;4.07;;;;;;;;;;4929482;28;20446;-82
2021/07/04 12:07:41;;;;;;;5.68;3.95;;;;;;;;;;4935219;28;20213;-82
2021/07/04 12:10:26;;;;;;;5.45;4.03;;;;;;;;;;4938969;28;20109;-83
2021/07/04 12:13:13;;;;;;;4.78;3.95;;;;;;;;;;4943234;28;20061;-82
2021/07/04 12:16:01;;;;;;;7.00;4.10;;;;;;;;;;4939339;28;20058;-82
2021/07/04 12:18:47;;;;;;;8.88;5.10;;;;;;;;;;4939646;28;20074;-83
2021/07/04 12:21:36;;;;;;;5.05;3.80;;;;;;;;;;4934662;28;20035;-82
2021/07/04 12:24:30;;;;;;;6.45;4.30;;;;;;;;;;4941585;28;20421;-83
2021/07/04 12:27:15;;;;;;;6.47;3.95;;;;;;;;;;4922450;28;20046;-83
2021/07/04 12:30:06;;;;;;;5.63;4.00;;;;;;;;;;4941254;28;20027;-82
2021/07/04 12:32:53;;;;;;;6.10;4.57;;;;;;;;;;4935736;28;20061;-82
2021/07/04 12:35:43;;;;;;;8.65;4.60;;;;;;;;;;4946288;28;20387;-82
2021/07/04 12:38:30;;;;;;;5.57;4.30;;;;;;;;;;4939382;28;20054;-82
2021/07/04 12:41:16;;;;;;;6.80;4.55;;;;;;;;;;4943303;28;20049;-82
2021/07/04 12:44:11;;;;;;;6.43;4.55;;;;;;;;;;4943015;28;20034;-84
2021/07/04 12:46:56;;;;;;;6.38;4.38;;;;;;;;;;4935287;28;20093;-83
2021/07/04 12:49:42;;;;;;;6.50;3.85;;;;;;;;;;4946119;28;20019;-83
2021/07/04 12:52:27;;;;;;;8.30;4.55;;;;;;;;;;4942068;28;21252;-83
2021/07/04 12:55:12;;;;;;;5.20;3.97;;;;;;;;;;4940887;28;20058;-84
2021/07/04 12:57:57;;;;;;;10.18;4.88;;;;;;;;;;4936149;28;20031;-83
2021/07/04 13:00:43;;;;;;;7.82;4.13;;;;;;;;;;4940383;28;20023;-81
2021/07/04 13:03:35;;;;;;;4.55;3.75;;;;;;;;;;4940411;28;20215;-83
2021/07/04 13:06:33;;;;;;;7.28;5.43;;;;;;;;;;4943098;28;20425;-83
2021/07/04 13:09:22;;;;;;;8.02;5.65;;;;;;;;;;4938869;28;20032;-83
2021/07/04 13:12:15;;;;;;;4.72;3.72;;;;;;;;;;4942488;28;20028;-82
2021/07/04 13:15:02;;;;;;;5.20;4.00;;;;;;;;;;4933218;28;20225;-82
2021/07/04 13:17:48;;;;;;;5.82;4.32;;;;;;;;;;4937259;28;20074;-82
2021/07/04 13:20:33;;;;;;;7.15;4.20;;;;;;;;;;4937973;28;20031;-82
2021/07/04 13:23:18;;;;;;;6.93;4.25;;;;;;;;;;4946894;28;20034;-83
2021/07/04 13:26:03;;;;;;;7.63;4.25;;;;;;;;;;4953564;28;20037;-81
2021/07/04 13:28:49;;;;;;;5.95;4.68;;;;;;;;;;4944624;28;20026;-82
2021/07/04 13:31:34;;;;;;;5.47;4.13;;;;;;;;;;4956653;28;20102;-82
2021/07/04 13:34:20;;;;;;;8.05;4.10;;;;;;;;;;4935057;28;20085;-83
2021/07/04 13:37:09;;;;;;;11.52;8.60;;;;;;;;;;4938203;28;20039;-82
2021/07/04 13:39:55;;;;;;;;;;;;;;;;;;4937739;28;20110;-82
2021/07/04 13:42:42;;;;;;;8.38;5.10;;;;;;;;;;4935088;29;19911;-82
2021/07/04 13:45:28;;;;;;;6.97;5.10;;;;;;;;;;4935173;28;20034;-82
2021/07/04 13:48:13;;;;;;;9.13;5.60;;;;;;;;;;4937318;28;20027;-83
2021/07/04 13:50:59;;;;;;;6.43;4.45;;;;;;;;;;4930481;28;20106;-84
2021/07/04 13:53:45;;;;;;;8.25;5.40;;;;;;;;;;4933160;28;20086;-83
2021/07/04 13:56:32;;;;;;;7.20;5.20;;;;;;;;;;4924861;29;20027;-84
2021/07/04 13:59:17;;;;;;;4.50;3.63;;;;;;;;;;4939684;28;20117;-88
2021/07/04 14:02:03;;;;;;;4.07;3.28;;;;;;;;;;4940511;28;20085;-86
2021/07/04 14:04:48;;;;;;;5.05;3.60;;;;;;;;;;4937259;29;20470;-84
2021/07/04 14:07:34;;;;;;;6.75;3.35;;;;;;;;;;4935349;28;20066;-87
2021/07/04 14:10:19;;;;;;;3.97;3.08;;;;;;;;;;4940614;28;20031;-86
2021/07/04 14:13:05;;;;;;;3.20;2.90;;;;;;;;;;4948185;28;20058;-87
2021/07/04 14:15:50;;;;;;;3.45;2.97;;;;;;;;;;4935048;28;20047;-85
2021/07/04 14:18:35;;;;;;;5.18;2.80;;;;;;;;;;4946980;28;20027;-88
2021/07/04 14:21:21;;;;;;;3.97;3.13;;;;;;;;;;4935116;28;20206;-88
2021/07/04 14:24:06;;;;;;;13.05;9.43;;;;;;;;;;4935548;28;20091;-87
2021/07/04 14:26:51;;;;;;;4.25;2.75;;;;;;;;;;4940648;28;20030;-85
2021/07/04 14:29:36;;;;;;;3.38;2.20;;;;;;;;;;4934810;28;20031;-87
2021/07/04 14:32:22;;;;;;;5.28;2.60;;;;;;;;;;4941952;28;20034;-82
2021/07/04 14:35:08;;;;;;;2.72;2.42;;;;;;;;;;4935160;28;20499;-83
2021/07/04 14:37:54;;;;;;;2.28;2.08;;;;;;;;;;4938288;28;20050;-84
2021/07/04 14:40:39;;;;;;;3.03;2.45;;;;;;;;;;4939808;28;20034;-83
2021/07/04 14:43:25;;;;;;;3.72;2.30;;;;;;;;;;4941726;28;20023;-83
2021/07/04 14:46:10;;;;;;;2.25;1.95;;;;;;;;;;4936963;28;20234;-80
2021/07/04 14:48:56;;;;;;;2.22;1.95;;;;;;;;;;4935521;28;20031;-80
2021/07/04 14:51:47;;;;;;;2.47;2.00;;;;;;;;;;4935368;28;20567;-79
2021/07/04 14:54:35;;;;;;;3.58;2.40;;;;;;;;;;4936259;28;20027;-80
2021/07/04 14:57:21;;;;;;;3.83;2.47;;;;;;;;;;4927739;28;20453;-80
2021/07/04 15:00:07;;;;;;;5.65;3.15;;;;;;;;;;4934947;28;20540;-80
2021/07/04 15:02:52;;;;;;;4.63;2.88;;;;;;;;;;4933328;28;20026;-80
2021/07/04 15:05:37;;;;;;;2.92;2.30;;;;;;;;;;4933871;29;20035;-79
2021/07/04 15:08:23;;;;;;;6.32;3.10;;;;;;;;;;4927902;29;20079;-81
2021/07/04 15:11:08;;;;;;;3.28;2.97;;;;;;;;;;4935635;29;20139;-80
2021/07/04 15:13:54;;;;;;;3.45;2.70;;;;;;;;;;4926368;29;20556;-80
2021/07/04 15:16:39;;;;;;;4.75;3.33;;;;;;;;;;4934393;29;20114;-80
2021/07/04 15:19:24;;;;;;;4.10;3.00;;;;;;;;;;4924391;29;20394;-77
2021/07/04 15:22:09;;;;;;;4.35;3.38;;;;;;;;;;4929278;29;20418;-78
2021/07/04 15:24:54;;;;;;;5.78;3.00;;;;;;;;;;4927699;29;20011;-78
2021/07/04 15:27:40;;;;;;;3.63;2.95;;;;;;;;;;4934477;29;20078;-78
2021/07/04 15:30:25;;;;;;;4.75;3.10;;;;;;;;;;4924422;29;20035;-78
2021/07/04 15:33:11;;;;;;;3.42;2.70;;;;;;;;;;4935387;29;20490;-78
2021/07/04 15:35:56;;;;;;;5.40;3.22;;;;;;;;;;4947636;29;20026;-80
2021/07/04 15:38:41;;;;;;;3.17;2.25;;;;;;;;;;4933860;28;20134;-77
2021/07/04 15:41:26;;;;;;;3.55;2.40;;;;;;;;;;4929659;28;20027;-79
2021/07/04 15:44:13;;;;;;;3.03;2.47;;;;;;;;;;4929493;28;20078;-79
2021/07/04 15:46:58;;;;;;;2.65;2.00;;;;;;;;;;4938451;28;20189;-83
2021/07/04 15:49:43;;;;;;;3.17;2.30;;;;;;;;;;4937463;28;20070;-82
2021/07/04 15:52:28;;;;;;;3.75;2.35;;;;;;;;;;4938171;28;20486;-77
2021/07/04 15:55:14;;;;;;;3.88;2.58;;;;;;;;;;4937694;28;20419;-78
2021/07/04 15:57:59;;;;;;;2.28;1.92;;;;;;;;;;4933264;28;20114;-79
2021/07/04 16:00:47;;;;;;;2.50;2.30;;;;;;;;;;4938362;28;20023;-78
2021/07/04 16:03:32;;;;;;;3.00;2.20;;;;;;;;;;4937421;28;20023;-78
2021/07/04 16:06:18;;;;;;;3.15;2.08;;;;;;;;;;4933221;28;20062;-78
2021/07/04 16:09:05;;;;;;;3.55;2.35;;;;;;;;;;4936725;28;20023;-80
2021/07/04 16:11:50;;;;;;;3.45;2.40;;;;;;;;;;4936755;29;20825;-78
2021/07/04 16:14:36;;;;;;;3.35;2.25;;;;;;;;;;4934233;28;20459;-78
2021/07/04 16:17:21;;;;;;;3.15;2.13;;;;;;;;;;4935477;28;20270;-81
2021/07/04 16:20:08;;;;;;;3.75;3.10;;;;;;;;;;4937669;28;20027;-78
2021/07/04 16:22:53;;;;;;;3.95;2.15;;;;;;;;;;4933671;28;20499;-78
2021/07/04 16:25:39;;;;;;;3.03;2.10;;;;;;;;;;4943023;28;20034;-78
2021/07/04 16:28:24;;;;;;;3.20;1.85;;;;;;;;;;4941686;28;20202;-79
2021/07/04 16:31:09;;;;;;;1.80;1.60;;;;;;;;;;4935335;28;20031;-79
2021/07/04 16:33:54;;;;;;;3.03;1.77;;;;;;;;;;4943511;28;20766;-79
2021/07/04 16:36:40;;;;;;;2.08;1.50;;;;;;;;;;4934523;28;20097;-80